createdAt,value
2022-12-17T00:02:43.594Z,1024
2022-12-17T00:08:04.866Z,1023.9
2022-12-17T00:13:46.814Z,1023.9
2022-12-17T00:19:18.881Z,1024
2022-12-17T00:24:52.641Z,1024.1
2022-12-17T00:30:23.698Z,1024.1
2022-12-17T00:35:34.514Z,1024.2
2022-12-17T00:41:27.960Z,1024.4
2022-12-17T00:46:46.600Z,1024.5
2022-12-17T00:52:14.461Z,1024.5
2022-12-17T00:57:54.241Z,1024.6
2022-12-17T01:03:35.680Z,1024.8
2022-12-17T01:08:45.835Z,1024.8
2022-12-17T01:14:41.000Z,1024.8
2022-12-17T01:20:03.272Z,1024.8
2022-12-17T01:25:41.989Z,1024.9
2022-12-17T01:31:12.743Z,1025.1
2022-12-17T01:36:48.333Z,1025.1
2022-12-17T01:42:13.440Z,1025.1
2022-12-17T01:47:34.883Z,1025
2022-12-17T01:53:02.370Z,1025.3
2022-12-17T01:58:44.766Z,1025.3
2022-12-17T02:04:29.216Z,1025.3
2022-12-17T02:09:49.635Z,1025.3
2022-12-17T02:15:18.471Z,1025.4
2022-12-17T02:20:59.398Z,1025.4
2022-12-17T02:26:26.125Z,1025.4
2022-12-17T02:31:59.097Z,1025.5
2022-12-17T02:37:32.247Z,1025.5
2022-12-17T02:42:51.498Z,1025.4
2022-12-17T02:48:42.029Z,1025.7
2022-12-17T02:54:08.616Z,1025.7
2022-12-17T02:59:44.820Z,1025.7
2022-12-17T03:04:50.561Z,1025.7
2022-12-17T03:10:30.841Z,1025.8
2022-12-17T03:15:54.191Z,1025.8
2022-12-17T03:21:46.284Z,1025.8
2022-12-17T03:27:12.431Z,1025.8
2022-12-17T03:32:49.062Z,1025.9
2022-12-17T03:38:00.272Z,1025.9
2022-12-17T03:43:57.869Z,1025.9
2022-12-17T03:49:19.144Z,1025.9
2022-12-17T03:54:59.167Z,1026
2022-12-17T04:00:25.641Z,1025.9
2022-12-17T04:05:40.604Z,1026
2022-12-17T04:11:11.504Z,1026
2022-12-17T04:16:51.312Z,1025.9
2022-12-17T04:22:18.545Z,1025.8
2022-12-17T04:27:48.173Z,1025.9
2022-12-17T04:33:36.868Z,1025.9
2022-12-17T04:38:58.485Z,1026
2022-12-17T04:44:47.870Z,1026
2022-12-17T04:50:03.517Z,1026
2022-12-17T04:55:47.337Z,1026.1
2022-12-17T05:01:07.156Z,1026.1
2022-12-17T05:06:35.149Z,1026.1
2022-12-17T05:12:20.873Z,1026.2
2022-12-17T05:17:55.731Z,1026.2
2022-12-17T05:23:15.341Z,1026.3
2022-12-17T05:28:42.072Z,1026.2
2022-12-17T05:34:27.875Z,1026.2
2022-12-17T05:39:40.895Z,1026.3
2022-12-17T05:45:16.252Z,1026.4
2022-12-17T05:51:06.464Z,1026.4
2022-12-17T05:56:20.447Z,1026.4
2022-12-17T06:02:04.197Z,1026.4
2022-12-17T06:07:23.189Z,1026.4
2022-12-17T06:13:15.416Z,1026.5
2022-12-17T06:18:45.964Z,1026.5
2022-12-17T06:24:15.824Z,1026.5
2022-12-17T06:29:38.507Z,1026.5
2022-12-17T06:35:11.484Z,1026.6
2022-12-17T06:40:53.051Z,1026.7
2022-12-17T06:46:28.769Z,1026.7
2022-12-17T06:51:53.665Z,1026.8
2022-12-17T06:57:20.277Z,1026.8
2022-12-17T07:02:40.369Z,1026.8
2022-12-17T07:08:11.898Z,1027
2022-12-17T07:13:48.231Z,1027.1
2022-12-17T07:19:37.064Z,1027.3
2022-12-17T07:24:51.482Z,1027.2
2022-12-17T07:30:30.492Z,1027.3
2022-12-17T07:36:10.171Z,1027.5
2022-12-17T07:41:44.207Z,1027.5
2022-12-17T07:47:00.137Z,1027.7
2022-12-17T07:52:26.726Z,1027.7
2022-12-17T07:57:58.106Z,1027.8
2022-12-17T08:03:38.283Z,1027.9
2022-12-17T08:09:02.431Z,1028
2022-12-17T08:14:30.799Z,1028
2022-12-17T08:20:13.601Z,1028
2022-12-17T08:25:35.473Z,1028.1
2022-12-17T08:31:06.550Z,1028.3
2022-12-17T08:36:53.147Z,1028.4
2022-12-17T08:42:18.823Z,1028.3
2022-12-17T08:48:00.551Z,1028.4
2022-12-17T08:53:06.155Z,1028.4
2022-12-17T08:58:59.037Z,1028.4
2022-12-17T09:04:19.320Z,1028.5
2022-12-17T09:09:55.021Z,1028.6
2022-12-17T09:15:22.446Z,1028.5
2022-12-17T09:20:46.573Z,1028.6
2022-12-17T09:26:31.934Z,1028.6
2022-12-17T09:31:55.684Z,1028.7
2022-12-17T09:37:29.877Z,1028.7
2022-12-17T09:43:17.246Z,1028.7
2022-12-17T09:48:33.011Z,1028.7
2022-12-17T09:54:02.829Z,1028.8
2022-12-17T09:59:34.565Z,1028.7
2022-12-17T10:05:02.634Z,1028.6
2022-12-17T10:10:29.215Z,1028.5
2022-12-17T10:16:20.172Z,1028.4
2022-12-17T10:21:32.640Z,1028.4
2022-12-17T10:27:17.388Z,1028.4
2022-12-17T10:32:44.370Z,1028.5
2022-12-17T10:38:33.875Z,1028.4
2022-12-17T10:43:50.454Z,1028.6
2022-12-17T10:49:32.186Z,1028.5
2022-12-17T10:54:57.122Z,1028.4
2022-12-17T11:00:35.929Z,1028.4
2022-12-17T11:05:57.838Z,1028.5
2022-12-17T11:11:32.211Z,1028.5
2022-12-17T11:17:06.956Z,1028.4
2022-12-17T11:22:40.215Z,1028.5
2022-12-17T11:28:23.094Z,1028.6
2022-12-17T11:33:52.850Z,1028.5
2022-12-17T11:39:19.552Z,1028.5
2022-12-17T11:44:34.633Z,1028.6
2022-12-17T11:50:18.129Z,1028.6
2022-12-17T11:55:45.290Z,1028.5
2022-12-17T12:01:36.418Z,1028.5
2022-12-17T12:06:52.005Z,1028.4
2022-12-17T12:12:23.193Z,1028.5
2022-12-17T12:18:08.395Z,1028.5
2022-12-17T12:23:42.903Z,1028.6
2022-12-17T12:29:09.022Z,1028.5
2022-12-17T12:34:28.768Z,1028.5
2022-12-17T12:39:55.134Z,1028.4
2022-12-17T12:45:26.797Z,1028.5
2022-12-17T12:51:11.037Z,1028.4
2022-12-17T12:56:51.107Z,1028.4
2022-12-17T13:02:23.793Z,1028.4
2022-12-17T13:07:44.469Z,1028.4
2022-12-17T13:13:10.562Z,1028.5
2022-12-17T13:18:54.542Z,1028.5
2022-12-17T13:24:11.668Z,1028.4
2022-12-17T13:29:45.942Z,1028.5
2022-12-17T13:35:19.017Z,1028.5
2022-12-17T13:40:45.963Z,1028.6
2022-12-17T13:46:28.995Z,1028.5
2022-12-17T13:52:14.807Z,1028.5
2022-12-17T13:57:20.339Z,1028.7
2022-12-17T14:02:50.698Z,1028.8
2022-12-17T14:08:22.086Z,1028.7
2022-12-17T14:14:08.691Z,1028.9
2022-12-17T14:19:30.730Z,1028.9
2022-12-17T14:25:20.674Z,1028.9
2022-12-17T14:31:25.324Z,1028.9
2022-12-17T14:36:24.048Z,1029
2022-12-17T14:41:49.697Z,1029.1
2022-12-17T14:47:13.450Z,1029
2022-12-17T14:52:58.342Z,1029.1
2022-12-17T14:58:09.140Z,1029.1
2022-12-17T15:03:57.653Z,1029.2
2022-12-17T15:09:13.780Z,1029.2
2022-12-17T15:14:49.763Z,1029.3
2022-12-17T15:20:36.026Z,1029.4
2022-12-17T15:25:51.179Z,1029.3
2022-12-17T15:31:44.864Z,1029.4
2022-12-17T15:37:06.265Z,1029.4
2022-12-17T15:42:35.746Z,1029.4
2022-12-17T15:47:59.805Z,1029.5
2022-12-17T15:53:43.390Z,1029.6
2022-12-17T15:58:56.415Z,1029.5
2022-12-17T16:04:30.312Z,1029.5
2022-12-17T16:10:06.823Z,1029.6
2022-12-17T16:15:42.151Z,1029.7
2022-12-17T16:21:03.268Z,1029.6
2022-12-17T16:26:36.138Z,1029.7
2022-12-17T16:32:24.608Z,1029.6
2022-12-17T16:37:41.137Z,1029.8
2022-12-17T16:43:17.311Z,1029.7
2022-12-17T16:48:56.212Z,1029.7
2022-12-17T16:54:38.184Z,1029.7
2022-12-17T17:00:09.064Z,1029.8
2022-12-17T17:05:24.878Z,1029.8
2022-12-17T17:10:55.030Z,1029.9
2022-12-17T17:16:50.535Z,1030.1
2022-12-17T17:22:14.723Z,1030.1
2022-12-17T17:27:54.169Z,1030.2
2022-12-17T17:33:19.021Z,1030.2
2022-12-17T17:38:43.328Z,1030.3
2022-12-17T17:44:05.859Z,1030.3
2022-12-17T17:49:59.970Z,1030.4
2022-12-17T17:55:20.274Z,1030.4
2022-12-17T18:00:57.211Z,1030.5
2022-12-17T18:06:30.253Z,1030.4
2022-12-17T18:11:47.966Z,1030.4
2022-12-17T18:17:40.451Z,1030.3
2022-12-17T18:22:55.939Z,1030.5
2022-12-17T18:28:31.105Z,1030.5
2022-12-17T18:33:51.902Z,1030.5
2022-12-17T18:39:34.613Z,1030.5
2022-12-17T18:45:04.112Z,1030.6
2022-12-17T18:50:40.478Z,1030.7
2022-12-17T18:56:31.872Z,1030.8
2022-12-17T19:01:53.036Z,1030.8
2022-12-17T19:07:22.394Z,1030.8
2022-12-17T19:12:52.613Z,1030.8
2022-12-17T19:18:10.375Z,1030.9
2022-12-17T19:23:52.245Z,1031.1
2022-12-17T19:29:05.960Z,1031.1
2022-12-17T19:34:54.922Z,1031.1
2022-12-17T19:40:06.006Z,1031.2
2022-12-17T19:45:38.833Z,1031.2
2022-12-17T19:51:28.577Z,1031.2
2022-12-17T19:56:47.926Z,1031.4
2022-12-17T20:02:16.022Z,1031.5
2022-12-17T20:07:54.479Z,1031.4
2022-12-17T20:13:22.322Z,1031.4
2022-12-17T20:19:06.445Z,1031.4
2022-12-17T20:24:16.597Z,1031.5
2022-12-17T20:29:56.015Z,1031.6
2022-12-17T20:35:36.521Z,1031.4
2022-12-17T20:41:06.217Z,1031.5
2022-12-17T20:46:27.378Z,1031.7
2022-12-17T20:52:14.746Z,1031.6
2022-12-17T20:57:23.375Z,1031.6
2022-12-17T21:03:08.075Z,1031.7
2022-12-17T21:08:33.167Z,1031.8
2022-12-17T21:14:11.931Z,1031.6
2022-12-17T21:19:28.624Z,1031.7
2022-12-17T21:25:25.793Z,1031.8
2022-12-17T21:30:45.821Z,1031.7
2022-12-17T21:36:23.586Z,1031.7
2022-12-17T21:41:54.138Z,1031.7
2022-12-17T21:47:28.758Z,1031.8
2022-12-17T21:52:51.431Z,1031.6
2022-12-17T21:58:24.018Z,1031.8
2022-12-17T22:04:04.074Z,1031.6
2022-12-17T22:09:31.196Z,1031.6
2022-12-17T22:14:58.329Z,1031.7
2022-12-17T22:20:20.316Z,1031.6
2022-12-17T22:25:56.478Z,1031.7
2022-12-17T22:31:30.063Z,1031.6
2022-12-17T22:38:05.669Z,1031.6
2022-12-17T22:44:39.958Z,1031.6
2022-12-17T22:47:49.926Z,1031.6
2022-12-17T22:53:19.582Z,1031.7
2022-12-17T22:59:14.783Z,1031.8
2022-12-17T23:04:46.738Z,1031.8
2022-12-17T23:09:58.759Z,1031.8
2022-12-17T23:15:26.343Z,1031.9
2022-12-17T23:20:59.223Z,1031.9
2022-12-17T23:26:49.983Z,1031.8
2022-12-17T23:31:56.634Z,1031.9
2022-12-17T23:37:51.865Z,1032
2022-12-17T23:43:12.965Z,1032
2022-12-17T23:48:45.721Z,1032
2022-12-17T23:54:10.399Z,1031.9
2022-12-17T23:59:36.855Z,1031.9
